Time;durP1;ratioP1;P1;durP2;ratioP2;P2;SDS_P1;SDS_P2;PMS_P1;PMS_P2;Temp;Humidity;BMP_temperature;BMP_pressure;BME280_temperature;BME280_humidity;BME280_pressure;Samples;Min_cycle;Max_cycle;Signal;HPM_P1;HPM_P2
2024/01/24 00:00:46;;;;;;;3.20;0.50;;;7.70;99.90;;;;;;5010751;28;20026;-65
2024/01/24 00:03:12;;;;;;;3.88;0.77;;;7.80;99.90;;;;;;5007369;28;20158;-64
2024/01/24 00:05:38;;;;;;;10.02;1.75;;;7.80;99.90;;;;;;5010608;28;20034;-65
2024/01/24 00:08:04;;;;;;;5.97;0.60;;;7.80;99.90;;;;;;5005387;28;20632;-65
2024/01/24 00:10:29;;;;;;;6.78;0.98;;;7.90;99.90;;;;;;5009056;28;20040;-65
2024/01/24 00:12:55;;;;;;;2.58;0.60;;;8.00;99.90;;;;;;5005733;28;20034;-66
2024/01/24 00:15:21;;;;;;;6.82;1.20;;;8.00;99.90;;;;;;5008005;28;20404;-65
2024/01/24 00:17:46;;;;;;;11.43;1.23;;;7.90;99.90;;;;;;5006459;28;20026;-64
2024/01/24 00:20:12;;;;;;;7.03;0.88;;;7.90;99.90;;;;;;4996723;28;20081;-65
2024/01/24 00:22:38;;;;;;;3.28;0.70;;;8.00;99.90;;;;;;4999237;28;20033;-65
2024/01/24 00:25:04;;;;;;;4.22;0.60;;;8.10;99.90;;;;;;5001205;28;20141;-65
2024/01/24 00:27:29;;;;;;;3.30;0.52;;;8.20;99.90;;;;;;5008931;28;20021;-66
2024/01/24 00:29:55;;;;;;;3.33;0.60;;;8.10;99.90;;;;;;5009437;28;20056;-65
2024/01/24 00:32:21;;;;;;;8.75;0.60;;;8.10;99.90;;;;;;4998621;28;20038;-64
2024/01/24 00:34:47;;;;;;;1.30;0.38;;;8.10;99.90;;;;;;5007109;28;20030;-65
2024/01/24 00:37:12;;;;;;;6.47;0.70;;;8.30;99.90;;;;;;5000894;28;20076;-65
2024/01/24 00:39:38;;;;;;;2.72;0.50;;;8.30;99.90;;;;;;4991113;28;20037;-65
2024/01/24 00:42:05;;;;;;;2.13;0.63;;;8.30;99.90;;;;;;5000541;28;20033;-65
2024/01/24 00:44:30;;;;;;;2.42;0.55;;;8.40;99.90;;;;;;5007570;28;20511;-64
2024/01/24 00:46:56;;;;;;;1.42;0.45;;;8.50;99.90;;;;;;5006539;28;20053;-65
2024/01/24 00:49:22;;;;;;;2.67;0.50;;;8.50;99.90;;;;;;5001814;28;20164;-63
2024/01/24 00:51:48;;;;;;;2.75;0.45;;;8.50;99.90;;;;;;5010264;28;20052;-65
2024/01/24 00:54:14;;;;;;;7.38;0.77;;;8.50;99.90;;;;;;5006653;28;20034;-66
2024/01/24 00:56:40;;;;;;;3.10;0.73;;;8.50;99.90;;;;;;5002427;28;20454;-67
2024/01/24 00:59:06;;;;;;;1.80;0.55;;;8.60;99.90;;;;;;4995039;28;20029;-65
2024/01/24 01:01:31;;;;;;;6.25;0.52;;;8.60;99.90;;;;;;5009466;28;20033;-64
2024/01/24 01:03:57;;;;;;;4.50;0.45;;;8.60;99.90;;;;;;5008678;28;20026;-65
2024/01/24 01:06:23;;;;;;;2.85;0.60;;;8.60;99.90;;;;;;5008984;28;20537;-64
2024/01/24 01:08:48;;;;;;;4.10;0.60;;;8.70;99.90;;;;;;5007131;28;20037;-65
2024/01/24 01:11:14;;;;;;;4.05;0.70;;;8.70;99.90;;;;;;5009337;28;20160;-65
2024/01/24 01:13:40;;;;;;;4.70;0.60;;;8.70;99.90;;;;;;5008344;28;20544;-65
2024/01/24 01:16:05;;;;;;;3.42;0.50;;;8.70;99.90;;;;;;5000012;28;20037;-65
2024/01/24 01:18:31;;;;;;;3.42;0.60;;;8.70;99.90;;;;;;5008921;28;20041;-65
2024/01/24 01:20:57;;;;;;;3.47;0.70;;;8.80;99.90;;;;;;5008797;28;20433;-67
2024/01/24 01:23:22;;;;;;;4.32;0.77;;;8.80;99.90;;;;;;5009615;28;20061;-66
2024/01/24 01:25:48;;;;;;;4.10;0.63;;;8.80;99.90;;;;;;5008975;28;20044;-65
2024/01/24 01:28:14;;;;;;;4.35;0.75;;;8.80;99.90;;;;;;4993182;28;20042;-63
2024/01/24 01:30:39;;;;;;;3.00;0.68;;;8.80;99.90;;;;;;5005090;28;20458;-67
2024/01/24 01:33:05;;;;;;;7.55;0.98;;;8.70;99.90;;;;;;5008495;28;20077;-65
2024/01/24 01:35:30;;;;;;;3.33;0.60;;;8.70;99.90;;;;;;5004895;28;20033;-65
2024/01/24 01:37:56;;;;;;;5.63;0.50;;;8.70;99.90;;;;;;5002640;28;20503;-67
2024/01/24 01:40:22;;;;;;;3.15;0.50;;;8.80;99.90;;;;;;5002827;28;20033;-64
2024/01/24 01:42:47;;;;;;;1.90;0.52;;;8.80;99.90;;;;;;4999858;28;20041;-65
2024/01/24 01:45:13;;;;;;;3.85;0.47;;;8.80;99.90;;;;;;4991345;28;20068;-64
2024/01/24 01:47:39;;;;;;;5.88;0.50;;;8.80;99.90;;;;;;5004043;28;20065;-65
2024/01/24 01:50:10;;;;;;;4.60;0.57;;;8.90;99.90;;;;;;4997099;28;20513;-64
2024/01/24 01:52:36;;;;;;;4.28;0.63;;;8.90;99.90;;;;;;5004740;28;20034;-64
2024/01/24 01:55:04;;;;;;;4.82;0.75;;;8.90;99.90;;;;;;5003133;28;20045;-65
2024/01/24 01:57:31;;;;;;;5.22;0.50;;;8.90;99.90;;;;;;4994509;28;20038;-65
2024/01/24 01:59:57;;;;;;;2.65;0.90;;;8.90;99.90;;;;;;5000789;28;20022;-67
2024/01/24 02:02:22;;;;;;;3.28;0.47;;;8.90;99.90;;;;;;5005273;28;20025;-64
2024/01/24 02:04:48;;;;;;;3.65;0.75;;;8.90;99.90;;;;;;5007550;28;20049;-65
2024/01/24 02:07:15;;;;;;;3.40;0.93;;;8.90;99.90;;;;;;5001602;28;20034;-66
2024/01/24 02:09:41;;;;;;;4.75;0.50;;;9.00;99.90;;;;;;4994337;28;20463;-65
2024/01/24 02:12:07;;;;;;;2.83;0.50;;;9.10;99.90;;;;;;5008035;28;20125;-65
2024/01/24 02:14:33;;;;;;;6.57;0.57;;;9.10;99.90;;;;;;5006100;28;20080;-64
2024/01/24 02:16:58;;;;;;;5.30;0.98;;;9.10;99.90;;;;;;5004784;28;20111;-68
2024/01/24 02:19:25;;;;;;;5.05;0.60;;;9.10;99.90;;;;;;5003526;28;20116;-66
2024/01/24 02:21:51;;;;;;;4.63;0.90;;;9.10;99.90;;;;;;5000445;28;20034;-65
2024/01/24 02:24:17;;;;;;;8.85;0.93;;;9.30;99.90;;;;;;4995158;28;20039;-65
2024/01/24 02:26:43;;;;;;;6.32;0.70;;;9.20;99.90;;;;;;4997547;28;20095;-64
2024/01/24 02:29:09;;;;;;;4.10;0.68;;;9.20;99.90;;;;;;5002733;28;20688;-65
2024/01/24 02:31:34;;;;;;;2.17;0.40;;;9.20;99.90;;;;;;4991730;28;20034;-64
2024/01/24 02:34:00;;;;;;;5.00;0.60;;;9.20;99.90;;;;;;5004268;28;20398;-67
2024/01/24 02:36:25;;;;;;;5.60;0.60;;;9.30;99.90;;;;;;4999809;28;20030;-66
2024/01/24 02:38:51;;;;;;;2.58;0.50;;;9.30;99.90;;;;;;4996497;28;20022;-63
2024/01/24 02:41:19;;;;;;;4.00;0.57;;;9.40;99.90;;;;;;5001685;28;20493;-65
2024/01/24 02:43:44;;;;;;;5.13;0.80;;;9.50;99.90;;;;;;5002892;28;20075;-66
2024/01/24 02:46:10;;;;;;;4.40;0.70;;;9.50;99.90;;;;;;5004255;28;20680;-65
2024/01/24 02:48:36;;;;;;;4.97;0.52;;;9.60;99.90;;;;;;5021077;28;20025;-65
2024/01/24 02:51:01;;;;;;;10.45;0.88;;;9.60;99.90;;;;;;4998005;28;20101;-67
2024/01/24 02:53:27;;;;;;;2.30;0.60;;;9.60;99.90;;;;;;5008226;28;20038;-65
2024/01/24 02:55:52;;;;;;;4.20;0.98;;;9.60;99.90;;;;;;4998204;28;20038;-64
2024/01/24 02:58:18;;;;;;;4.35;0.50;;;9.60;99.90;;;;;;5006096;28;20030;-64
2024/01/24 03:00:44;;;;;;;7.03;0.60;;;9.60;99.90;;;;;;4999641;28;20076;-64
2024/01/24 03:03:09;;;;;;;10.15;0.90;;;9.70;99.90;;;;;;5007362;28;20052;-66
2024/01/24 03:05:35;;;;;;;2.15;0.47;;;9.70;99.90;;;;;;5017328;28;20068;-65
2024/01/24 03:08:02;;;;;;;6.70;1.30;;;9.70;99.90;;;;;;4997560;28;20030;-67
2024/01/24 03:10:27;;;;;;;5.20;0.60;;;9.70;99.90;;;;;;4991691;28;20105;-65
2024/01/24 03:12:53;;;;;;;2.80;0.57;;;9.70;99.90;;;;;;4998787;28;20125;-65
2024/01/24 03:15:19;;;;;;;6.07;0.82;;;9.80;99.90;;;;;;4994637;28;20038;-66
2024/01/24 03:17:45;;;;;;;3.38;0.77;;;9.70;99.90;;;;;;5000185;28;20092;-66
2024/01/24 03:20:12;;;;;;;7.25;0.60;;;9.70;99.90;;;;;;5016093;28;20030;-66
2024/01/24 03:22:38;;;;;;;3.47;0.60;;;9.60;99.90;;;;;;5005532;28;20030;-64
2024/01/24 03:25:04;;;;;;;3.70;0.60;;;9.60;99.90;;;;;;5005470;28;20041;-64
2024/01/24 03:27:30;;;;;;;3.08;0.57;;;9.70;99.90;;;;;;5008414;28;20060;-65
2024/01/24 03:29:55;;;;;;;6.57;0.50;;;9.70;99.90;;;;;;5008278;28;20109;-65
2024/01/24 03:32:21;;;;;;;3.20;0.52;;;9.70;99.90;;;;;;5005375;28;20034;-65
2024/01/24 03:34:58;;;;;;;3.63;0.50;;;9.60;99.90;;;;;;5006341;28;20040;-65
2024/01/24 03:37:24;;;;;;;7.32;0.57;;;9.60;99.90;;;;;;5006637;28;20022;-63
2024/01/24 03:39:50;;;;;;;4.28;0.82;;;9.70;99.90;;;;;;5006476;28;20125;-63
2024/01/24 03:42:17;;;;;;;4.82;0.85;;;9.70;99.90;;;;;;5006054;28;20041;-63
2024/01/24 03:44:43;;;;;;;5.15;0.52;;;9.60;99.90;;;;;;4999209;28;20516;-63
2024/01/24 03:47:08;;;;;;;4.82;0.57;;;9.60;99.90;;;;;;5000953;28;20045;-64
2024/01/24 03:49:34;;;;;;;6.70;0.60;;;9.50;99.90;;;;;;5009784;28;20033;-65
2024/01/24 03:52:00;;;;;;;3.40;0.40;;;9.60;99.90;;;;;;5008577;28;20037;-64
2024/01/24 03:54:25;;;;;;;6.28;0.80;;;9.50;99.90;;;;;;5010650;28;20038;-65
2024/01/24 03:56:51;;;;;;;4.55;0.93;;;9.50;99.90;;;;;;5004921;28;20034;-65
2024/01/24 03:59:17;;;;;;;6.57;0.63;;;9.50;99.90;;;;;;5010391;28;20030;-64
2024/01/24 04:01:42;;;;;;;3.78;0.63;;;9.60;99.90;;;;;;5010199;28;20034;-64
2024/01/24 04:04:08;;;;;;;1.83;0.60;;;9.60;99.90;;;;;;4991102;28;20030;-65
2024/01/24 04:06:35;;;;;;;2.28;0.43;;;9.60;99.90;;;;;;4995410;28;20034;-65
2024/01/24 04:09:02;;;;;;;2.60;0.70;;;9.70;99.90;;;;;;5010765;28;20057;-66
2024/01/24 04:11:28;;;;;;;3.95;0.50;;;9.80;99.90;;;;;;5006280;28;20779;-65
2024/01/24 04:13:54;;;;;;;2.75;0.45;;;9.80;99.90;;;;;;5009357;28;20128;-67
2024/01/24 04:16:20;;;;;;;4.95;0.55;;;9.80;99.90;;;;;;4999369;28;20085;-66
2024/01/24 04:18:46;;;;;;;2.28;0.45;;;9.80;99.90;;;;;;5024762;28;20017;-64
2024/01/24 04:21:12;;;;;;;6.07;0.75;;;9.90;99.90;;;;;;5010614;28;20026;-65
2024/01/24 04:23:37;;;;;;;3.40;0.47;;;9.80;99.90;;;;;;5004373;28;20092;-65
2024/01/24 04:26:04;;;;;;;7.40;0.73;;;9.80;99.90;;;;;;5005923;28;20066;-64
2024/01/24 04:28:30;;;;;;;3.70;0.70;;;9.80;99.90;;;;;;4997004;28;20079;-65
2024/01/24 04:30:56;;;;;;;3.28;0.60;;;9.90;99.90;;;;;;4997844;28;20022;-65
2024/01/24 04:33:22;;;;;;;3.35;0.60;;;9.90;99.90;;;;;;5009560;28;20374;-64
2024/01/24 04:35:47;;;;;;;4.35;0.70;;;10.00;99.90;;;;;;5002791;28;20040;-65
2024/01/24 04:38:13;;;;;;;1.75;0.55;;;10.00;99.90;;;;;;5000246;28;20056;-65
2024/01/24 04:40:38;;;;;;;2.70;0.55;;;10.00;99.90;;;;;;5010348;28;20081;-65
2024/01/24 04:43:04;;;;;;;1.45;0.30;;;10.10;99.90;;;;;;5003887;28;20365;-64
2024/01/24 04:45:30;;;;;;;1.63;0.60;;;10.20;99.90;;;;;;5008157;28;20053;-65
2024/01/24 04:47:55;;;;;;;5.40;0.63;;;10.20;99.90;;;;;;5005898;28;20041;-65
2024/01/24 04:50:21;;;;;;;8.95;0.75;;;10.20;99.90;;;;;;5008634;28;20034;-65
2024/01/24 04:52:47;;;;;;;3.75;0.63;;;10.30;99.90;;;;;;5001718;28;20109;-65
2024/01/24 04:55:13;;;;;;;4.85;0.63;;;10.40;99.90;;;;;;4990200;28;20066;-65
2024/01/24 04:57:39;;;;;;;2.92;0.80;;;10.40;99.90;;;;;;4998459;28;20035;-65
2024/01/24 05:00:09;;;;;;;3.75;0.82;;;10.40;99.90;;;;;;5001254;28;20426;-64
2024/01/24 05:02:35;;;;;;;7.38;0.80;;;10.50;99.90;;;;;;4990933;28;20137;-67
2024/01/24 05:05:01;;;;;;;6.60;0.60;;;10.40;99.90;;;;;;5004461;28;20041;-65
2024/01/24 05:07:27;;;;;;;6.10;0.98;;;10.50;99.90;;;;;;4994318;28;20026;-65
2024/01/24 05:09:53;;;;;;;5.40;0.77;;;10.60;99.90;;;;;;4999314;28;20041;-65
2024/01/24 05:12:19;;;;;;;7.03;0.80;;;10.60;99.90;;;;;;5001931;28;20037;-68
2024/01/24 05:14:45;;;;;;;3.97;1.15;;;10.60;99.90;;;;;;5004568;28;20030;-66
2024/01/24 05:17:10;;;;;;;6.80;1.00;;;10.60;99.90;;;;;;4991499;28;20035;-68
2024/01/24 05:19:36;;;;;;;3.78;0.80;;;10.60;99.90;;;;;;5006277;28;20026;-66
2024/01/24 05:22:02;;;;;;;4.07;0.68;;;10.70;99.90;;;;;;5004059;28;20031;-66
2024/01/24 05:24:28;;;;;;;4.53;0.50;;;10.70;99.90;;;;;;5003900;28;20049;-65
2024/01/24 05:26:53;;;;;;;3.20;0.90;;;10.80;99.90;;;;;;5008493;28;20672;-65
2024/01/24 05:29:19;;;;;;;7.80;1.25;;;10.80;99.90;;;;;;5004787;28;20030;-65
2024/01/24 05:31:45;;;;;;;4.25;1.00;;;10.80;99.90;;;;;;5008439;28;20030;-66
2024/01/24 05:34:11;;;;;;;1.67;0.40;;;10.70;99.90;;;;;;5004439;28;20393;-69
2024/01/24 05:36:37;;;;;;;3.28;0.65;;;10.80;99.90;;;;;;5007191;28;20157;-67
2024/01/24 05:39:06;;;;;;;2.30;0.85;;;10.80;99.90;;;;;;5007311;28;20108;-66
2024/01/24 05:41:32;;;;;;;4.63;0.98;;;10.70;99.90;;;;;;4987911;28;20030;-65
2024/01/24 05:43:58;;;;;;;7.05;1.10;;;10.70;99.90;;;;;;4998909;28;20112;-65
2024/01/24 05:46:23;;;;;;;6.72;0.85;;;10.80;99.90;;;;;;5008053;28;20045;-65
2024/01/24 05:48:49;;;;;;;2.67;0.82;;;10.70;99.90;;;;;;5006637;28;20467;-66
2024/01/24 05:51:15;;;;;;;3.10;1.00;;;10.70;99.90;;;;;;5000013;28;20060;-65
2024/01/24 05:53:44;;;;;;;2.63;0.82;;;10.70;99.90;;;;;;4992673;28;20463;-67
2024/01/24 05:56:10;;;;;;;3.92;1.02;;;10.70;99.90;;;;;;4999493;28;20026;-68
2024/01/24 05:58:37;;;;;;;5.97;0.68;;;10.70;99.90;;;;;;4999207;28;20029;-67
2024/01/24 06:01:03;;;;;;;1.60;0.55;;;10.60;99.90;;;;;;4995658;28;20108;-65
2024/01/24 06:03:29;;;;;;;5.03;1.00;;;10.70;99.90;;;;;;4993787;28;20526;-64
2024/01/24 06:05:54;;;;;;;2.30;0.82;;;10.70;99.90;;;;;;4997624;28;20065;-66
2024/01/24 06:08:20;;;;;;;6.68;1.13;;;10.70;99.90;;;;;;5000484;28;20026;-66
2024/01/24 06:10:46;;;;;;;3.17;0.80;;;10.60;99.90;;;;;;4995883;28;20032;-65
2024/01/24 06:13:11;;;;;;;8.00;1.00;;;10.60;99.90;;;;;;4997409;28;20486;-67
2024/01/24 06:15:37;;;;;;;3.28;0.85;;;10.70;99.90;;;;;;4996351;28;20028;-66
2024/01/24 06:18:03;;;;;;;5.07;0.98;;;10.70;99.90;;;;;;4998482;28;20030;-66
2024/01/24 06:20:29;;;;;;;4.05;1.17;;;10.70;99.90;;;;;;4996625;28;20030;-69
2024/01/24 06:22:54;;;;;;;3.38;0.80;;;10.80;99.90;;;;;;4998074;28;20030;-66
2024/01/24 06:25:20;;;;;;;7.75;1.55;;;10.90;99.90;;;;;;4994014;28;20053;-66
2024/01/24 06:27:46;;;;;;;2.85;0.80;;;10.80;99.90;;;;;;5010279;28;20458;-65
2024/01/24 06:30:12;;;;;;;3.08;1.10;;;10.90;99.90;;;;;;5012005;28;20032;-68
2024/01/24 06:32:38;;;;;;;3.85;1.05;;;10.90;99.90;;;;;;4996583;28;20045;-66
2024/01/24 06:35:03;;;;;;;4.32;0.90;;;11.00;99.90;;;;;;4996987;28;20030;-66
2024/01/24 06:37:29;;;;;;;4.88;1.05;;;11.00;99.90;;;;;;4996478;28;20209;-65
2024/01/24 06:39:55;;;;;;;6.25;1.00;;;11.10;99.90;;;;;;4997278;28;20060;-66
2024/01/24 06:42:20;;;;;;;2.55;0.95;;;11.10;99.90;;;;;;4999542;28;20391;-65
2024/01/24 06:44:46;;;;;;;4.03;0.75;;;11.10;99.90;;;;;;4995612;28;20128;-65
2024/01/24 06:47:12;;;;;;;2.40;0.80;;;11.20;99.90;;;;;;4999275;28;20364;-68
2024/01/24 06:49:37;;;;;;;5.63;1.13;;;11.20;99.90;;;;;;4999553;28;20030;-66
2024/01/24 06:52:03;;;;;;;6.13;0.90;;;11.20;99.90;;;;;;5001007;28;20137;-66
2024/01/24 06:54:29;;;;;;;3.50;0.90;;;11.20;99.90;;;;;;5005526;28;20040;-65
2024/01/24 06:56:54;;;;;;;4.70;0.80;;;11.30;99.90;;;;;;5004030;28;20034;-67
2024/01/24 06:59:20;;;;;;;3.60;1.05;;;11.30;99.90;;;;;;4998533;28;20041;-66
2024/01/24 07:01:46;;;;;;;1.98;0.82;;;11.30;99.90;;;;;;5004801;28;20083;-66
2024/01/24 07:04:11;;;;;;;3.28;0.80;;;11.20;99.90;;;;;;5002599;28;20036;-68
2024/01/24 07:06:37;;;;;;;4.35;1.23;;;11.20;99.90;;;;;;5002477;28;20105;-65
2024/01/24 07:09:02;;;;;;;3.03;0.98;;;11.00;99.90;;;;;;4999107;28;20105;-66
2024/01/24 07:11:28;;;;;;;3.38;0.73;;;10.90;99.90;;;;;;4997192;28;20065;-65
2024/01/24 07:13:54;;;;;;;3.05;0.80;;;10.80;99.90;;;;;;5006777;28;20042;-65
2024/01/24 07:16:20;;;;;;;3.75;1.00;;;10.80;99.90;;;;;;4990551;28;20097;-64
2024/01/24 07:18:45;;;;;;;6.82;0.90;;;10.80;99.90;;;;;;4996584;28;20058;-65
2024/01/24 07:21:11;;;;;;;2.95;0.80;;;10.80;99.90;;;;;;5007891;28;20463;-65
2024/01/24 07:23:36;;;;;;;2.80;0.70;;;10.80;99.90;;;;;;5002208;28;20034;-66
2024/01/24 07:26:02;;;;;;;3.30;0.93;;;10.80;99.90;;;;;;5010202;28;20117;-65
2024/01/24 07:28:29;;;;;;;2.88;0.60;;;10.90;99.90;;;;;;5008327;28;20034;-65
2024/01/24 07:30:55;;;;;;;1.38;0.65;;;11.00;99.90;;;;;;4998811;28;20038;-66
2024/01/24 07:33:21;;;;;;;4.10;0.80;;;11.00;99.90;;;;;;5002475;28;20077;-65
2024/01/24 07:35:47;;;;;;;1.30;0.60;;;11.10;99.90;;;;;;5011467;28;20026;-65
2024/01/24 07:38:13;;;;;;;3.28;1.10;;;11.10;99.90;;;;;;4994628;28;20030;-64
2024/01/24 07:40:38;;;;;;;2.97;0.70;;;11.10;99.90;;;;;;4993057;28;20810;-64
2024/01/24 07:43:04;;;;;;;2.05;0.90;;;11.20;99.90;;;;;;4994492;28;20430;-66
2024/01/24 07:45:30;;;;;;;3.42;0.90;;;11.30;99.90;;;;;;4992878;28;20061;-65
2024/01/24 07:47:55;;;;;;;4.32;0.75;;;11.40;99.90;;;;;;4991037;28;20390;-66
2024/01/24 07:50:21;;;;;;;2.25;0.90;;;11.40;99.90;;;;;;4992072;28;20110;-68
2024/01/24 07:52:47;;;;;;;4.70;0.98;;;11.40;99.90;;;;;;4991416;28;20022;-66
2024/01/24 07:55:13;;;;;;;1.58;0.70;;;11.40;99.90;;;;;;4994737;28;20414;-68
2024/01/24 07:57:39;;;;;;;2.85;0.70;;;11.50;99.90;;;;;;4993121;28;20041;-68
2024/01/24 08:00:06;;;;;;;1.95;0.80;;;11.50;99.90;;;;;;4996399;28;20065;-67
2024/01/24 08:02:32;;;;;;;2.17;0.70;;;11.60;99.90;;;;;;4997850;28;20509;-68
2024/01/24 08:04:57;;;;;;;3.47;0.70;;;11.70;99.90;;;;;;5004061;28;20035;-69
2024/01/24 08:07:23;;;;;;;2.42;0.98;;;11.60;99.90;;;;;;5006314;28;20038;-69
2024/01/24 08:09:49;;;;;;;2.03;0.50;;;11.70;99.90;;;;;;4997932;28;20030;-70
2024/01/24 08:12:15;;;;;;;4.15;0.70;;;11.80;99.90;;;;;;4998707;28;20113;-72
2024/01/24 08:14:41;;;;;;;1.65;0.60;;;11.80;99.90;;;;;;5000722;28;20057;-70
2024/01/24 08:17:08;;;;;;;2.35;0.70;;;11.80;99.90;;;;;;5008973;28;20112;-71
2024/01/24 08:19:34;;;;;;;1.05;0.65;;;11.80;99.90;;;;;;5004792;28;20077;-70
2024/01/24 08:22:00;;;;;;;4.40;0.50;;;11.80;99.90;;;;;;5011447;28;20026;-72
2024/01/24 08:24:26;;;;;;;1.27;0.60;;;11.90;99.90;;;;;;5010023;28;20049;-70
2024/01/24 08:26:52;;;;;;;1.25;0.47;;;11.90;99.90;;;;;;4992104;28;20026;-70
2024/01/24 08:29:19;;;;;;;2.72;0.60;;;12.00;99.90;;;;;;4990964;28;20026;-75
2024/01/24 08:31:45;;;;;;;3.20;0.80;;;12.00;99.90;;;;;;5010737;28;20083;-72
2024/01/24 08:34:10;;;;;;;2.67;0.50;;;12.00;99.90;;;;;;4998129;28;20033;-71
2024/01/24 08:36:36;;;;;;;4.43;0.50;;;12.00;99.90;;;;;;4997298;28;20682;-71
2024/01/24 08:39:05;;;;;;;2.17;0.60;;;12.00;99.90;;;;;;5010360;28;20030;-71
2024/01/24 08:41:31;;;;;;;0.95;0.40;;;12.10;99.90;;;;;;5010350;28;20045;-71
2024/01/24 08:43:57;;;;;;;0.88;0.47;;;12.00;99.90;;;;;;5010821;28;20050;-70
2024/01/24 08:46:23;;;;;;;1.30;0.40;;;12.00;99.90;;;;;;5009560;28;20096;-70
2024/01/24 08:48:49;;;;;;;3.53;0.40;;;12.10;99.90;;;;;;5010535;28;20112;-70
2024/01/24 08:51:14;;;;;;;2.83;0.55;;;12.10;99.90;;;;;;5011089;28;20140;-72
2024/01/24 08:53:40;;;;;;;1.23;0.60;;;12.20;99.90;;;;;;5009888;28;20459;-72
2024/01/24 08:56:06;;;;;;;1.02;0.30;;;12.10;99.90;;;;;;5006100;28;20101;-70
2024/01/24 08:58:31;;;;;;;0.98;0.35;;;12.20;99.90;;;;;;4995336;28;20030;-71
2024/01/24 09:00:57;;;;;;;1.42;0.50;;;12.20;99.90;;;;;;5010796;28;20105;-71
2024/01/24 09:03:22;;;;;;;1.38;0.50;;;12.10;99.90;;;;;;5009362;28;20164;-70
2024/01/24 09:05:51;;;;;;;1.08;0.40;;;12.10;99.90;;;;;;5010620;28;20572;-70
2024/01/24 09:08:17;;;;;;;2.10;0.40;;;12.20;99.90;;;;;;5010295;28;20022;-72
2024/01/24 09:10:42;;;;;;;2.25;0.45;;;12.20;99.90;;;;;;5009942;28;20041;-70
2024/01/24 09:13:08;;;;;;;0.85;0.20;;;12.20;99.90;;;;;;5004965;28;20022;-71
2024/01/24 09:15:34;;;;;;;0.88;0.30;;;12.30;99.90;;;;;;4990255;28;20571;-72
2024/01/24 09:18:00;;;;;;;1.05;0.38;;;12.30;99.90;;;;;;4989541;28;20494;-71
2024/01/24 09:20:25;;;;;;;1.05;0.30;;;12.30;99.90;;;;;;4990440;28;20102;-71
2024/01/24 09:22:51;;;;;;;2.05;0.55;;;12.20;99.90;;;;;;4992542;28;20109;-71
2024/01/24 09:25:18;;;;;;;0.90;0.40;;;12.10;99.90;;;;;;5010325;28;20061;-70
2024/01/24 09:27:45;;;;;;;0.93;0.20;;;12.10;99.90;;;;;;5009808;28;20756;-72
2024/01/24 09:30:11;;;;;;;0.60;0.28;;;12.10;99.90;;;;;;5010066;28;20030;-69
2024/01/24 09:32:36;;;;;;;2.92;0.20;;;12.10;99.90;;;;;;5009085;28;20033;-70
2024/01/24 09:35:03;;;;;;;0.85;0.30;;;12.20;99.90;;;;;;5009628;28;20525;-71
2024/01/24 09:37:29;;;;;;;1.48;0.20;;;12.10;99.90;;;;;;5009310;28;20029;-71
2024/01/24 09:39:56;;;;;;;0.73;0.28;;;12.10;99.90;;;;;;5008589;28;20029;-72
2024/01/24 09:42:25;;;;;;;0.20;0.10;;;12.10;99.90;;;;;;5008828;28;20037;-74
2024/01/24 09:44:52;;;;;;;1.70;0.30;;;12.30;99.90;;;;;;4991804;28;20062;-71
2024/01/24 09:47:22;;;;;;;2.28;0.20;;;12.30;99.90;;;;;;4989483;28;20371;-71
2024/01/24 09:49:48;;;;;;;1.50;0.32;;;12.20;99.90;;;;;;4990121;28;20030;-71
2024/01/24 09:52:16;;;;;;;0.28;0.10;;;12.00;99.90;;;;;;4993188;28;20568;-70
2024/01/24 09:54:43;;;;;;;0.98;0.20;;;12.00;99.90;;;;;;4993243;28;20034;-70
2024/01/24 09:57:10;;;;;;;0.70;0.30;;;12.00;99.90;;;;;;4990140;28;20031;-71
2024/01/24 09:59:36;;;;;;;3.38;0.50;;;12.10;99.90;;;;;;4989439;28;20034;-70
2024/01/24 10:02:03;;;;;;;0.30;0.10;;;12.10;99.90;;;;;;5005092;28;20097;-71
2024/01/24 10:04:36;;;;;;;0.60;0.20;;;12.20;99.90;;;;;;5008019;28;20037;-71
2024/01/24 10:07:04;;;;;;;0.35;0.15;;;12.20;99.90;;;;;;5009620;28;20351;-70
2024/01/24 10:09:29;;;;;;;0.90;0.10;;;12.20;99.90;;;;;;5008794;28;20058;-71
2024/01/24 10:11:55;;;;;;;0.52;0.10;;;12.30;99.90;;;;;;5009556;28;20068;-71
2024/01/24 10:14:22;;;;;;;0.30;0.10;;;12.30;99.90;;;;;;4990767;28;20108;-74
2024/01/24 10:16:50;;;;;;;0.60;0.10;;;12.40;99.90;;;;;;4989199;28;20113;-72
2024/01/24 10:19:21;;;;;;;0.45;0.10;;;12.40;99.90;;;;;;4989769;28;20027;-71
2024/01/24 10:21:47;;;;;;;;;;;12.40;99.90;;;;;;5008349;28;20021;-70
2024/01/24 10:24:13;;;;;;;0.13;0.05;;;12.40;99.90;;;;;;5008600;28;19917;-70
2024/01/24 10:26:39;;;;;;;1.73;0.20;;;12.30;99.90;;;;;;5008425;28;20118;-71
2024/01/24 10:29:06;;;;;;;0.05;0.00;;;12.40;99.90;;;;;;5009225;28;20037;-71
2024/01/24 10:31:32;;;;;;;0.10;0.00;;;12.40;99.90;;;;;;4992029;28;20093;-71
2024/01/24 10:33:57;;;;;;;0.10;0.00;;;12.40;99.90;;;;;;5004286;28;20042;-71
2024/01/24 10:36:23;;;;;;;0.75;0.08;;;12.40;99.90;;;;;;5008845;28;20026;-73
2024/01/24 10:38:53;;;;;;;0.25;0.00;;;12.40;99.90;;;;;;5001569;28;20045;-73
2024/01/24 10:41:22;;;;;;;0.32;0.10;;;12.40;99.90;;;;;;4991952;28;20088;-71
2024/01/24 10:43:55;;;;;;;0.10;0.10;;;12.20;99.90;;;;;;4998806;28;20053;-71
2024/01/24 10:46:22;;;;;;;0.52;0.00;;;12.20;99.90;;;;;;5009043;28;20042;-70
2024/01/24 10:48:50;;;;;;;0.68;0.00;;;12.10;99.90;;;;;;5008547;28;20025;-71
2024/01/24 10:51:18;;;;;;;0.13;0.08;;;12.20;99.90;;;;;;4995655;28;20042;-71
2024/01/24 10:53:44;;;;;;;0.55;0.10;;;12.20;99.90;;;;;;4997032;28;20490;-71
2024/01/24 10:56:13;;;;;;;0.43;0.10;;;12.30;99.90;;;;;;5008984;28;20030;-71
2024/01/24 10:58:41;;;;;;;0.22;0.00;;;12.30;99.90;;;;;;5010927;28;20068;-72
2024/01/24 11:01:06;;;;;;;0.57;0.10;;;12.30;99.90;;;;;;5000902;28;20494;-71
2024/01/24 11:03:32;;;;;;;1.35;0.20;;;12.50;99.90;;;;;;5008159;28;20042;-71
2024/01/24 11:06:01;;;;;;;0.20;0.10;;;12.50;99.90;;;;;;5012879;28;20030;-71
2024/01/24 11:08:36;;;;;;;2.95;0.10;;;12.60;99.90;;;;;;4995632;28;20085;-75
2024/01/24 11:11:08;;;;;;;0.00;0.00;;;12.60;99.90;;;;;;5002117;28;20033;-71
2024/01/24 11:13:35;;;;;;;0.30;0.00;;;12.70;99.90;;;;;;5012127;28;20209;-71
2024/01/24 11:16:24;;;;;;;0.77;0.10;;;12.70;99.90;;;;;;5027739;28;20468;-71
2024/01/24 11:18:50;;;;;;;0.40;0.10;;;12.70;99.90;;;;;;5011586;28;20045;-71
2024/01/24 11:24:46;;;;;;;0.32;0.10;;;12.40;99.90;;;;;;4945027;29;20047;-71
2024/01/24 11:27:34;;;;;;;2.95;0.10;;;12.40;99.90;;;;;;4950198;29;20027;-70
2024/01/24 11:30:18;;;;;;;0.08;0.00;;;12.40;99.90;;;;;;4986512;28;20047;-72
2024/01/24 11:32:44;;;;;;;0.40;0.10;;;12.40;99.90;;;;;;5004897;28;20586;-71
2024/01/24 11:35:27;;;;;;;1.58;0.05;;;12.40;99.90;;;;;;5012304;28;20034;-70
2024/01/24 11:37:54;;;;;;;1.55;0.10;;;12.50;99.90;;;;;;5011649;28;20065;-70
2024/01/24 11:40:23;;;;;;;0.17;0.10;;;12.50;99.90;;;;;;5009114;28;20097;-71
2024/01/24 11:42:56;;;;;;;1.40;0.03;;;12.40;99.90;;;;;;4992144;28;20095;-72
2024/01/24 11:45:24;;;;;;;0.43;0.10;;;12.40;99.90;;;;;;4992682;28;20096;-71
2024/01/24 11:47:54;;;;;;;0.43;0.10;;;12.30;99.90;;;;;;4992336;28;20664;-73
2024/01/24 11:50:20;;;;;;;0.85;0.10;;;12.30;99.90;;;;;;4992818;28;20496;-72
2024/01/24 11:52:46;;;;;;;2.28;0.30;;;12.10;99.90;;;;;;4991653;28;20046;-71
2024/01/24 11:55:12;;;;;;;0.68;0.22;;;11.90;99.90;;;;;;4992499;28;20080;-70
2024/01/24 11:57:38;;;;;;;0.73;0.20;;;11.80;99.90;;;;;;4992100;28;20034;-71
2024/01/24 12:00:08;;;;;;;1.95;0.40;;;11.60;99.90;;;;;;4994249;28;20042;-73
2024/01/24 12:02:35;;;;;;;1.95;0.30;;;11.50;99.90;;;;;;4990218;28;20076;-72
2024/01/24 12:05:01;;;;;;;0.57;0.20;;;11.40;99.90;;;;;;4992154;28;20042;-72
2024/01/24 12:07:27;;;;;;;0.68;0.30;;;11.40;99.90;;;;;;4992286;28;20026;-70
2024/01/24 12:09:53;;;;;;;0.98;0.20;;;11.30;99.90;;;;;;5006620;28;20113;-71
2024/01/24 12:12:19;;;;;;;0.40;0.20;;;11.30;99.90;;;;;;5011278;28;20065;-70
2024/01/24 12:14:46;;;;;;;0.43;0.20;;;11.40;99.90;;;;;;5010998;28;20429;-72
2024/01/24 12:17:12;;;;;;;1.70;0.40;;;11.50;99.90;;;;;;5011627;28;20041;-71
2024/01/24 12:19:41;;;;;;;0.98;0.10;;;11.60;99.90;;;;;;5010016;28;20114;-71
2024/01/24 12:22:09;;;;;;;0.57;0.15;;;11.60;99.90;;;;;;5011476;28;20026;-71
2024/01/24 12:24:39;;;;;;;1.30;0.20;;;11.60;99.90;;;;;;5025781;28;20529;-71
2024/01/24 12:27:07;;;;;;;0.55;0.28;;;11.70;99.90;;;;;;5011525;28;20030;-73
2024/01/24 12:29:33;;;;;;;1.05;0.38;;;11.80;99.90;;;;;;5004648;28;20081;-75
2024/01/24 12:32:05;;;;;;;3.13;0.20;;;11.80;99.90;;;;;;4990436;28;20080;-72
2024/01/24 12:34:30;;;;;;;1.77;0.43;;;11.80;99.90;;;;;;4991197;28;20041;-74
2024/01/24 12:36:57;;;;;;;1.58;0.30;;;11.70;99.90;;;;;;4991391;28;20032;-72
2024/01/24 12:39:32;;;;;;;1.58;0.20;;;11.80;99.90;;;;;;4993055;28;20104;-71
2024/01/24 12:41:59;;;;;;;0.43;0.10;;;11.90;99.90;;;;;;5009360;28;20084;-72
2024/01/24 12:44:25;;;;;;;0.82;0.25;;;11.90;99.90;;;;;;5010968;28;20053;-72
2024/01/24 12:46:57;;;;;;;3.17;0.30;;;12.00;99.90;;;;;;5010272;28;20092;-72
2024/01/24 12:49:26;;;;;;;1.55;0.20;;;12.10;99.90;;;;;;5011075;28;20041;-71